Pagrindinis puslapis
METAR-TAF:

METAR-TAF

Oro uostai :

La Argelia

Locha, Ekvadoras

platuma: 03-59-45S, ilguma: 079-22-19W, Aukštis: 1236 m

Dabartinis oras

Ataskaita buvo paskelbta 31 minutes, ne 14:00 UTC
Vėjas 2 kt iš Pietų/Pietvakarių
Temperatūra 20°C
Drėgmė 73%
Slėgis 1019 hPa
Matomumas 10 km arba daugiau
nėra debesų žemiau 1500 m ir nėra kamuolinių lietaus debesų

METAR: SECA 201400Z 20002KT CAVOK 20/15 Q1019

Laikas: 09:31 (14:31 UTC)


TAF: trūkstamas

Orai ataskaitas ir orų prognozės (METAR, TAF).

turimą stotys yra geltonos ir raudonos taškus žemėlapyje.

Perkelti pele per norėdami pamatyti stoties vardą.

Tada spustelėkite, norėdami matyti oro stebėjimo ir prognozės.

Norėdami pakeisti žemėlapį: spustelėkite ant žalios mygtukų su juodo kryžiaus žemyn,; žalią mygtuką su brūkšneliu, jei norite nutolinti; arba žalių rodyklių gretimoms žemėlapius.


METAR-TAF: